createdAt,value
2023-05-12T00:00:22.004Z,0.90
2023-05-12T00:03:12.782Z,0.50
2023-05-12T00:05:43.455Z,0.80
2023-05-12T00:08:13.705Z,1.00
2023-05-12T00:10:44.005Z,0.60
2023-05-12T00:13:15.090Z,0.90
2023-05-12T00:15:45.943Z,0.60
2023-05-12T00:18:16.342Z,0.80
2023-05-12T00:20:46.677Z,0.60
2023-05-12T00:23:17.407Z,0.50
2023-05-12T00:25:48.138Z,0.60
2023-05-12T00:28:19.417Z,0.60
2023-05-12T00:30:50.020Z,0.70
2023-05-12T00:33:20.164Z,0.60
2023-05-12T00:35:50.668Z,0.70
2023-05-12T00:38:20.934Z,0.50
2023-05-12T00:40:51.277Z,0.90
2023-05-12T00:43:21.360Z,0.50
2023-05-12T00:45:51.751Z,0.70
2023-05-12T00:48:22.399Z,0.40
2023-05-12T00:50:52.872Z,0.90
2023-05-12T00:53:23.358Z,0.60
2023-05-12T00:55:54.230Z,0.70
2023-05-12T00:58:24.518Z,0.50
2023-05-12T01:00:55.329Z,0.70
2023-05-12T01:03:26.034Z,0.70
2023-05-12T01:05:59.535Z,0.70
2023-05-12T01:08:30.317Z,0.40
2023-05-12T01:11:00.637Z,0.30
2023-05-12T01:13:31.591Z,0.60
2023-05-12T01:16:04.184Z,0.70
2023-05-12T01:18:35.827Z,0.80
2023-05-12T01:21:06.890Z,1.20
2023-05-12T01:23:41.026Z,2.70
2023-05-12T01:26:11.769Z,1.00
2023-05-12T01:28:42.905Z,0.80
2023-05-12T01:31:13.421Z,0.80
2023-05-12T01:33:43.871Z,0.80
2023-05-12T01:36:14.153Z,1.10
2023-05-12T01:38:44.733Z,0.80
2023-05-12T01:41:15.092Z,1.20
2023-05-12T01:43:45.954Z,1.10
2023-05-12T01:46:16.801Z,1.00
2023-05-12T01:48:47.796Z,0.90
2023-05-12T01:51:18.907Z,0.80
2023-05-12T01:53:49.315Z,0.60
2023-05-12T01:56:21.538Z,0.70
2023-05-12T01:58:51.970Z,0.90
2023-05-12T02:01:24.837Z,0.60
2023-05-12T02:03:56.149Z,1.00
2023-05-12T02:06:26.809Z,1.00
2023-05-12T02:08:57.982Z,1.20
2023-05-12T02:11:30.693Z,1.00
2023-05-12T02:14:01.271Z,1.00
2023-05-12T02:16:36.588Z,1.10
2023-05-12T02:19:08.452Z,0.70
2023-05-12T02:21:39.630Z,0.80
2023-05-12T02:24:14.224Z,0.80
2023-05-12T02:26:45.187Z,0.90
2023-05-12T02:29:15.745Z,0.90
2023-05-12T02:31:46.535Z,1.00
2023-05-12T02:34:17.490Z,1.20
2023-05-12T02:36:47.836Z,0.50
2023-05-12T02:39:18.238Z,0.90
2023-05-12T02:41:49.252Z,0.90
2023-05-12T02:44:22.344Z,0.60
2023-05-12T02:46:53.771Z,0.60
2023-05-12T02:49:24.751Z,0.80
2023-05-12T02:51:55.567Z,1.30
2023-05-12T02:54:26.370Z,0.90
2023-05-12T02:56:58.620Z,0.80
2023-05-12T02:59:30.307Z,1.00
2023-05-12T03:02:01.290Z,1.90
2023-05-12T03:04:33.155Z,1.00
2023-05-12T03:07:03.749Z,1.00
2023-05-12T03:09:34.198Z,1.20
2023-05-12T03:12:05.239Z,1.20
2023-05-12T03:14:35.473Z,0.90
2023-05-12T03:17:06.907Z,1.60
2023-05-12T03:19:37.470Z,1.20
2023-05-12T03:22:07.958Z,2.00
2023-05-12T03:24:38.067Z,1.30
2023-05-12T03:27:09.757Z,1.00
2023-05-12T03:29:40.394Z,1.30
2023-05-12T03:32:11.120Z,2.30
2023-05-12T03:34:41.733Z,1.10
2023-05-12T03:37:12.420Z,1.70
2023-05-12T03:39:43.357Z,2.70
2023-05-12T03:42:15.918Z,2.20
2023-05-12T03:44:46.409Z,1.90
2023-05-12T03:47:16.703Z,2.00
2023-05-12T03:49:47.212Z,1.80
2023-05-12T03:52:17.628Z,2.00
2023-05-12T03:54:47.945Z,2.00
2023-05-12T03:57:18.333Z,1.90
2023-05-12T03:59:48.800Z,1.70
2023-05-12T04:02:19.112Z,2.00
2023-05-12T04:04:49.833Z,1.80
2023-05-12T04:07:20.523Z,2.00
2023-05-12T04:09:52.032Z,2.70
2023-05-12T04:12:22.440Z,1.50
2023-05-12T04:14:53.504Z,2.20
2023-05-12T04:17:27.099Z,1.20
2023-05-12T04:19:58.077Z,2.40
2023-05-12T04:22:28.440Z,1.50
2023-05-12T04:24:59.497Z,2.10
2023-05-12T04:27:29.991Z,1.90
2023-05-12T04:30:00.450Z,1.80
2023-05-12T04:32:31.560Z,1.40
2023-05-12T04:35:02.174Z,3.20
2023-05-12T04:37:32.495Z,2.10
2023-05-12T04:40:04.420Z,2.50
2023-05-12T04:42:34.886Z,3.60
2023-05-12T04:45:06.988Z,2.20
2023-05-12T04:47:37.396Z,4.20
2023-05-12T04:50:10.834Z,4.00
2023-05-12T04:52:41.628Z,2.90
2023-05-12T04:55:15.805Z,2.60
2023-05-12T04:57:49.291Z,3.20
2023-05-12T05:00:22.323Z,3.10
2023-05-12T05:02:53.038Z,2.50
2023-05-12T05:05:23.664Z,3.10
2023-05-12T05:07:54.059Z,2.70
2023-05-12T05:10:25.284Z,3.30
2023-05-12T05:12:55.827Z,3.10
2023-05-12T05:15:26.706Z,2.00
2023-05-12T05:17:57.533Z,2.70
2023-05-12T05:20:29.322Z,2.50
2023-05-12T05:23:02.180Z,3.30
2023-05-12T05:25:32.889Z,3.10
2023-05-12T05:28:03.099Z,2.40
2023-05-12T05:30:33.594Z,2.10
2023-05-12T05:33:04.242Z,2.60
2023-05-12T05:35:34.523Z,2.00
2023-05-12T05:38:06.052Z,2.50
2023-05-12T05:40:49.291Z,2.20
2023-05-12T05:43:22.300Z,3.50
2023-05-12T05:45:55.579Z,2.70
2023-05-12T05:48:27.791Z,3.50
2023-05-12T05:50:58.173Z,3.00
2023-05-12T05:53:29.145Z,3.80
2023-05-12T05:55:59.617Z,3.70
2023-05-12T05:58:31.024Z,5.00
2023-05-12T06:01:10.008Z,4.70
2023-05-12T06:03:40.435Z,4.50
2023-05-12T06:06:10.958Z,3.40
2023-05-12T06:08:43.124Z,3.90
2023-05-12T06:11:15.902Z,3.50
2023-05-12T06:13:47.740Z,4.10
2023-05-12T06:16:18.721Z,3.40
2023-05-12T06:18:49.856Z,4.00
2023-05-12T06:21:20.363Z,5.60
2023-05-12T06:23:51.575Z,5.20
2023-05-12T06:26:23.610Z,4.70
2023-05-12T06:28:54.040Z,5.70
2023-05-12T06:31:24.702Z,4.80
2023-05-12T06:33:55.704Z,6.60
2023-05-12T06:36:26.268Z,3.20
2023-05-12T06:38:59.296Z,4.00
2023-05-12T06:41:29.872Z,5.30
2023-05-12T06:44:02.143Z,5.00
2023-05-12T06:46:33.072Z,6.10
2023-05-12T06:49:07.116Z,4.80
2023-05-12T06:51:37.925Z,3.60
2023-05-12T06:54:08.960Z,4.30
2023-05-12T06:56:41.106Z,4.80
2023-05-12T06:59:12.328Z,3.70
2023-05-12T07:01:43.388Z,3.10
2023-05-12T07:04:14.067Z,3.70
2023-05-12T07:06:45.037Z,3.60
2023-05-12T07:09:15.205Z,4.90
2023-05-12T07:11:49.858Z,5.30
2023-05-12T07:14:20.594Z,2.70
2023-05-12T07:16:51.471Z,4.90
2023-05-12T07:19:22.246Z,3.90
2023-05-12T07:21:53.586Z,4.90
2023-05-12T07:24:23.928Z,5.20
2023-05-12T07:26:54.498Z,5.30
2023-05-12T07:29:29.834Z,11.50
2023-05-12T07:32:00.183Z,9.20
2023-05-12T07:34:30.533Z,14.50
2023-05-12T07:37:03.829Z,10.90
2023-05-12T07:39:35.325Z,6.40
2023-05-12T07:42:07.314Z,7.00
2023-05-12T07:44:38.911Z,5.50
2023-05-12T07:47:09.497Z,6.80
2023-05-12T07:49:39.941Z,5.90
2023-05-12T07:52:10.471Z,5.50
2023-05-12T07:54:41.280Z,5.30
2023-05-12T07:57:12.071Z,5.80
2023-05-12T07:59:42.756Z,7.10
2023-05-12T08:02:13.470Z,6.70
2023-05-12T08:04:44.571Z,5.40
2023-05-12T08:07:15.450Z,6.30
2023-05-12T08:09:46.119Z,6.30
2023-05-12T08:12:16.811Z,5.30
2023-05-12T08:14:47.146Z,4.60
2023-05-12T08:17:18.596Z,7.30
2023-05-12T08:19:49.208Z,8.60
2023-05-12T08:22:21.405Z,10.30
2023-05-12T08:24:53.395Z,5.90
2023-05-12T08:27:27.616Z,5.00
2023-05-12T08:30:01.419Z,6.10
2023-05-12T08:32:41.016Z,4.60
2023-05-12T08:35:16.191Z,4.30
2023-05-12T08:37:50.589Z,5.70
2023-05-12T08:40:26.273Z,5.30
2023-05-12T08:43:06.490Z,5.30
2023-05-12T08:45:39.794Z,5.00
2023-05-12T08:48:11.672Z,6.20
2023-05-12T08:50:44.703Z,7.80
2023-05-12T08:53:23.813Z,6.50
2023-05-12T08:59:42.276Z,7.90
2023-05-12T09:02:53.991Z,8.20
2023-05-12T09:05:34.896Z,8.40
2023-05-12T09:08:13.970Z,7.70
2023-05-12T09:10:52.127Z,7.80
2023-05-12T09:13:49.782Z,7.50
2023-05-12T09:16:25.165Z,7.40
2023-05-12T09:18:57.253Z,6.10
2023-05-12T09:21:32.048Z,5.50
2023-05-12T09:24:10.366Z,6.10
2023-05-12T09:26:52.891Z,6.40
2023-05-12T09:29:37.506Z,6.80
2023-05-12T09:32:40.613Z,5.60
2023-05-12T09:35:24.112Z,5.70
2023-05-12T09:38:01.682Z,6.40
2023-05-12T09:40:40.409Z,5.70
2023-05-12T09:43:22.892Z,4.90
2023-05-12T09:45:57.643Z,7.00
2023-05-12T09:48:29.033Z,6.10
2023-05-12T09:51:03.191Z,6.00
2023-05-12T09:53:34.658Z,4.70
2023-05-12T09:56:12.776Z,6.50
2023-05-12T09:58:51.667Z,8.10
2023-05-12T10:01:24.234Z,6.50
2023-05-12T10:03:59.343Z,6.90
2023-05-12T10:06:40.967Z,9.10
2023-05-12T10:09:47.894Z,9.60
2023-05-12T10:12:19.337Z,12.00
2023-05-12T10:14:51.444Z,13.20
2023-05-12T10:17:23.735Z,11.50
2023-05-12T10:19:54.795Z,7.50
2023-05-12T10:22:33.828Z,11.90
2023-05-12T10:25:12.050Z,11.50
2023-05-12T10:27:48.461Z,11.30
2023-05-12T10:30:20.466Z,11.90
2023-05-12T10:32:53.646Z,10.40
2023-05-12T10:35:49.755Z,10.90
2023-05-12T10:38:23.508Z,7.90
2023-05-12T10:41:04.690Z,8.80
2023-05-12T10:43:42.834Z,10.10
2023-05-12T10:46:23.325Z,11.30
2023-05-12T10:49:00.537Z,11.30
2023-05-12T10:51:35.979Z,12.10
2023-05-12T10:54:09.243Z,10.00
2023-05-12T10:56:45.696Z,12.50
2023-05-12T10:59:30.811Z,9.80
2023-05-12T11:02:05.438Z,11.10
2023-05-12T11:05:01.102Z,13.80
2023-05-12T11:07:37.400Z,13.30
2023-05-12T11:10:13.500Z,12.30
2023-05-12T11:12:46.661Z,9.80
2023-05-12T11:15:18.871Z,9.60
2023-05-12T11:17:54.849Z,9.00
2023-05-12T11:20:27.573Z,9.50
2023-05-12T11:23:01.672Z,8.70
2023-05-12T11:25:35.539Z,8.70
2023-05-12T11:28:07.453Z,9.40
2023-05-12T11:31:01.016Z,7.50
2023-05-12T11:33:38.101Z,9.80
2023-05-12T11:36:12.685Z,9.90
2023-05-12T11:38:52.732Z,10.60
2023-05-12T11:41:27.776Z,8.30
2023-05-12T11:43:58.526Z,11.40
2023-05-12T11:46:32.236Z,10.30
2023-05-12T11:49:04.013Z,10.80
2023-05-12T11:51:34.668Z,10.00
2023-05-12T11:54:05.517Z,10.30
2023-05-12T11:56:36.215Z,11.20
2023-05-12T11:59:07.310Z,11.90
2023-05-12T12:01:47.537Z,12.70
2023-05-12T12:04:19.758Z,10.80
2023-05-12T12:06:54.017Z,11.10
2023-05-12T12:09:32.399Z,11.60
2023-05-12T12:12:08.143Z,10.80
2023-05-12T12:14:43.040Z,10.40
2023-05-12T12:17:15.059Z,9.40
2023-05-12T12:19:49.448Z,9.10
2023-05-12T12:22:21.945Z,9.00
2023-05-12T12:24:52.215Z,8.70
2023-05-12T12:27:22.589Z,8.90
2023-05-12T12:29:55.673Z,11.50
2023-05-12T12:32:31.682Z,9.00
2023-05-12T12:35:06.258Z,10.70
2023-05-12T12:37:37.392Z,9.70
2023-05-12T12:40:09.994Z,9.10
2023-05-12T12:42:41.058Z,9.30
2023-05-12T12:45:13.438Z,8.10
2023-05-12T12:47:46.156Z,9.70
2023-05-12T12:50:16.960Z,7.90
2023-05-12T12:52:49.142Z,9.50
2023-05-12T12:55:20.772Z,9.60
2023-05-12T12:57:51.407Z,10.20
2023-05-12T13:00:23.963Z,10.00
2023-05-12T13:02:54.648Z,10.50
2023-05-12T13:05:28.029Z,13.10
2023-05-12T13:07:58.306Z,10.50
2023-05-12T13:10:33.814Z,11.10
2023-05-12T13:15:35.764Z,13.10
2023-05-12T13:18:08.789Z,11.40
2023-05-12T13:20:39.295Z,11.60
2023-05-12T13:23:10.644Z,9.20
2023-05-12T13:25:44.734Z,9.00
2023-05-12T13:28:20.438Z,9.50
2023-05-12T13:31:08.792Z,7.90
2023-05-12T13:33:45.157Z,8.00
2023-05-12T13:36:22.155Z,5.70
2023-05-12T13:39:06.475Z,7.00
2023-05-12T13:41:45.900Z,7.20
2023-05-12T13:44:24.731Z,6.30
2023-05-12T13:46:56.485Z,5.50
2023-05-12T13:49:29.966Z,6.00
2023-05-12T13:52:04.319Z,5.40
2023-05-12T13:54:38.309Z,7.40
2023-05-12T13:57:13.039Z,6.20
2023-05-12T13:59:54.290Z,7.00
2023-05-12T14:02:26.776Z,9.20
2023-05-12T14:05:02.039Z,7.00
2023-05-12T14:07:32.747Z,8.40
2023-05-12T14:10:07.151Z,6.90
2023-05-12T14:12:41.069Z,5.80
2023-05-12T14:15:26.570Z,6.90
2023-05-12T14:18:07.395Z,7.00
2023-05-12T14:23:36.387Z,8.30
2023-05-12T14:26:12.529Z,7.20
2023-05-12T14:28:45.904Z,7.20
2023-05-12T14:31:18.981Z,6.40
2023-05-12T14:33:50.931Z,6.20
2023-05-12T14:36:54.088Z,7.10
2023-05-12T14:39:48.333Z,7.40
2023-05-12T14:42:29.451Z,8.40
2023-05-12T14:45:34.366Z,10.10
2023-05-12T14:48:15.087Z,9.70
2023-05-12T14:50:56.797Z,9.20
2023-05-12T14:53:30.264Z,9.30
2023-05-12T14:56:05.983Z,9.20
2023-05-12T14:58:36.780Z,8.80
2023-05-12T15:01:09.340Z,6.30
2023-05-12T15:03:43.112Z,9.70
2023-05-12T15:06:16.548Z,8.10
2023-05-12T15:08:47.449Z,9.90
2023-05-12T15:11:22.512Z,7.90
2023-05-12T15:13:55.996Z,8.50
2023-05-12T15:19:15.084Z,8.40
2023-05-12T15:22:00.465Z,8.70
2023-05-12T15:24:34.864Z,8.70
2023-05-12T15:27:07.816Z,8.70
2023-05-12T15:29:41.567Z,8.20
2023-05-12T15:32:14.496Z,9.60
2023-05-12T15:34:45.051Z,9.00
2023-05-12T15:37:15.830Z,7.60
2023-05-12T15:39:53.416Z,8.90
2023-05-12T15:42:32.358Z,9.10
2023-05-12T15:45:10.782Z,8.50
2023-05-12T15:47:41.430Z,9.40
2023-05-12T15:50:20.359Z,9.20
2023-05-12T15:52:54.474Z,9.80
2023-05-12T15:55:30.321Z,8.80
2023-05-12T15:58:01.305Z,11.60
2023-05-12T16:00:31.861Z,11.20
2023-05-12T16:03:02.959Z,12.20
2023-05-12T16:05:37.483Z,12.80
2023-05-12T16:08:08.247Z,11.60
2023-05-12T16:10:38.610Z,13.20
2023-05-12T16:13:09.635Z,11.60
2023-05-12T16:15:40.085Z,12.40
2023-05-12T16:18:11.514Z,10.70
2023-05-12T16:20:43.249Z,11.30
2023-05-12T16:23:15.443Z,12.20
2023-05-12T16:25:46.523Z,13.10
2023-05-12T16:28:17.158Z,13.20
2023-05-12T16:30:48.899Z,14.50
2023-05-12T16:33:19.510Z,14.40
2023-05-12T16:35:50.498Z,13.60
2023-05-12T16:38:20.911Z,13.40
2023-05-12T16:40:51.859Z,13.70
2023-05-12T16:43:22.856Z,13.20
2023-05-12T16:46:01.606Z,14.80
2023-05-12T16:48:34.870Z,20.80
2023-05-12T16:51:07.958Z,18.70
2023-05-12T16:53:39.272Z,16.80
2023-05-12T16:56:10.046Z,14.70
2023-05-12T16:58:42.234Z,15.20
2023-05-12T17:01:12.820Z,16.50
2023-05-12T17:03:43.742Z,16.70
2023-05-12T17:06:14.907Z,17.00
2023-05-12T17:08:45.435Z,19.20
2023-05-12T17:11:21.777Z,17.40
2023-05-12T17:13:53.628Z,15.70
2023-05-12T17:16:24.282Z,15.70
2023-05-12T17:21:29.606Z,16.10
2023-05-12T17:24:00.581Z,16.90
2023-05-12T17:26:31.138Z,17.10
2023-05-12T17:29:02.264Z,16.20
2023-05-12T17:31:34.158Z,17.30
2023-05-12T17:34:04.642Z,17.60
2023-05-12T17:36:40.241Z,17.00
2023-05-12T17:39:13.903Z,16.40
2023-05-12T17:41:44.976Z,18.20
2023-05-12T17:44:15.381Z,17.30
2023-05-12T17:46:49.298Z,19.80
2023-05-12T17:49:25.162Z,17.90
2023-05-12T17:51:58.924Z,17.00
2023-05-12T17:54:36.065Z,15.30
2023-05-12T17:57:07.421Z,15.40
2023-05-12T17:59:40.037Z,16.30
2023-05-12T18:02:13.779Z,14.60
2023-05-12T18:04:44.779Z,15.30
2023-05-12T18:07:15.869Z,15.30
2023-05-12T18:09:49.075Z,14.90
2023-05-12T18:12:22.166Z,13.60
2023-05-12T18:14:55.348Z,11.80
2023-05-12T18:17:27.813Z,10.10
2023-05-12T18:20:02.176Z,11.40
2023-05-12T18:22:34.165Z,11.30
2023-05-12T18:25:04.791Z,11.60
2023-05-12T18:27:38.779Z,10.20
2023-05-12T18:30:11.598Z,11.20
2023-05-12T18:32:47.455Z,11.70
2023-05-12T18:35:26.790Z,11.20
2023-05-12T18:38:00.657Z,11.20
2023-05-12T18:40:31.705Z,11.20
2023-05-12T18:43:04.053Z,11.40
2023-05-12T18:45:35.894Z,11.60
2023-05-12T18:48:10.794Z,11.70
2023-05-12T18:50:41.659Z,12.70
2023-05-12T18:53:12.188Z,15.20
2023-05-12T18:55:43.946Z,12.30
2023-05-12T18:58:20.311Z,11.90
2023-05-12T19:00:50.839Z,13.10
2023-05-12T19:03:21.647Z,14.50
2023-05-12T19:05:52.540Z,12.20
2023-05-12T19:08:24.824Z,13.00
2023-05-12T19:11:01.661Z,13.50
2023-05-12T19:13:33.397Z,12.70
2023-05-12T19:16:04.128Z,12.00
2023-05-12T19:18:34.765Z,12.90
2023-05-12T19:21:09.335Z,10.90
2023-05-12T19:23:41.408Z,11.40
2023-05-12T19:26:15.241Z,10.50
2023-05-12T19:28:47.669Z,10.80
2023-05-12T19:31:24.120Z,11.40
2023-05-12T19:33:56.633Z,10.50
2023-05-12T19:36:30.144Z,10.30
2023-05-12T19:39:01.414Z,10.60
2023-05-12T19:41:41.347Z,11.20
2023-05-12T19:44:15.477Z,11.30
2023-05-12T19:47:02.908Z,10.00
2023-05-12T19:49:42.147Z,9.40
2023-05-12T19:52:30.211Z,9.40
2023-05-12T19:55:15.662Z,8.90
2023-05-12T19:57:54.422Z,10.30
2023-05-12T20:00:29.186Z,10.60
2023-05-12T20:03:06.304Z,9.50
2023-05-12T20:05:40.009Z,8.70
2023-05-12T20:08:13.568Z,9.80
2023-05-12T20:10:47.773Z,10.70
2023-05-12T20:13:24.670Z,10.90
2023-05-12T20:15:56.704Z,9.90
2023-05-12T20:18:31.304Z,13.00
2023-05-12T20:21:03.641Z,14.00
2023-05-12T20:23:42.685Z,18.70
2023-05-12T20:26:18.505Z,22.50
2023-05-12T20:28:54.476Z,22.60
2023-05-12T20:31:26.137Z,15.30
2023-05-12T20:34:02.856Z,16.10
2023-05-12T20:36:33.432Z,15.50
2023-05-12T20:39:09.550Z,14.20
2023-05-12T20:41:42.891Z,14.80
2023-05-12T20:44:14.517Z,14.60
2023-05-12T20:46:46.800Z,14.30
2023-05-12T20:49:21.192Z,15.50
2023-05-12T20:51:51.727Z,16.30
2023-05-12T20:54:22.444Z,15.00
2023-05-12T20:56:52.750Z,15.80
2023-05-12T20:59:24.520Z,14.60
2023-05-12T21:01:56.450Z,14.60
2023-05-12T21:04:32.067Z,13.40
2023-05-12T21:07:02.991Z,13.60
2023-05-12T21:09:35.228Z,15.40
2023-05-12T21:12:07.348Z,13.90
2023-05-12T21:14:41.367Z,14.60
2023-05-12T21:17:16.414Z,15.30
2023-05-12T21:19:47.005Z,15.50
2023-05-12T21:22:20.313Z,15.30
2023-05-12T21:24:52.196Z,14.30
2023-05-12T21:27:23.206Z,14.30
2023-05-12T21:30:00.899Z,15.40
2023-05-12T21:35:23.670Z,16.60
2023-05-12T21:37:56.186Z,16.40
2023-05-12T21:40:27.477Z,16.00
2023-05-12T21:42:58.790Z,14.60
2023-05-12T21:45:29.364Z,17.00
2023-05-12T21:47:59.953Z,14.30
2023-05-12T21:50:30.705Z,15.80
2023-05-12T21:53:03.535Z,16.90
2023-05-12T21:55:34.603Z,19.00
2023-05-12T21:58:05.836Z,15.20
2023-05-12T22:00:36.949Z,16.20
2023-05-12T22:03:08.837Z,15.10
2023-05-12T22:05:42.818Z,16.40
2023-05-12T22:08:13.832Z,15.90
2023-05-12T22:10:48.631Z,15.50
2023-05-12T22:13:21.829Z,15.40
2023-05-12T22:15:55.392Z,14.50
2023-05-12T22:18:27.361Z,14.50
2023-05-12T22:20:59.038Z,13.70
2023-05-12T22:23:35.199Z,13.90
2023-05-12T22:26:07.517Z,12.90
2023-05-12T22:28:37.978Z,11.10
2023-05-12T22:31:10.927Z,14.00
2023-05-12T22:33:51.593Z,13.90
2023-05-12T22:36:21.847Z,13.80
2023-05-12T22:38:57.998Z,12.80
2023-05-12T22:41:30.928Z,11.30
2023-05-12T22:44:01.480Z,11.10
2023-05-12T22:46:31.970Z,9.90
2023-05-12T22:49:02.137Z,10.70
2023-05-12T22:51:32.445Z,10.50
2023-05-12T22:54:02.808Z,9.70
2023-05-12T22:56:33.049Z,10.40
2023-05-12T22:59:03.475Z,10.10
2023-05-12T23:01:34.372Z,8.80
2023-05-12T23:04:05.172Z,10.90
2023-05-12T23:06:37.351Z,11.40
2023-05-12T23:09:09.600Z,10.50
2023-05-12T23:11:40.500Z,10.70
2023-05-12T23:14:11.770Z,10.10
2023-05-12T23:16:42.030Z,11.80
2023-05-12T23:19:12.655Z,10.40
2023-05-12T23:21:43.363Z,10.20
2023-05-12T23:24:13.849Z,11.00
2023-05-12T23:26:44.246Z,10.80
2023-05-12T23:29:15.209Z,12.50
2023-05-12T23:31:45.812Z,10.20
2023-05-12T23:34:16.296Z,11.10
2023-05-12T23:36:46.466Z,12.70
2023-05-12T23:39:17.081Z,13.90
2023-05-12T23:41:47.421Z,12.50
2023-05-12T23:44:17.984Z,13.30
2023-05-12T23:46:48.618Z,15.10
2023-05-12T23:49:18.854Z,13.30
2023-05-12T23:51:49.281Z,12.80
2023-05-12T23:54:19.982Z,12.60
2023-05-12T23:56:50.908Z,11.20
2023-05-12T23:59:21.225Z,11.10
